sensor_id;sensor_type;location;lat;lon;timestamp;P1;durP1;ratioP1;P2;durP2;ratioP2
43511;SDS011;34054;52.100;5.116;2022-09-09T00:00:14;2.24;;;1.62;;
43511;SDS011;34054;52.100;5.116;2022-09-09T00:00:51;0.52;;;0.38;;
43511;SDS011;34054;52.100;5.116;2022-09-09T00:01:33;1.60;;;1.34;;
43511;SDS011;34054;52.100;5.116;2022-09-09T00:02:19;4.30;;;1.62;;
43511;SDS011;34054;52.100;5.116;2022-09-09T00:02:54;1.22;;;1.12;;
43511;SDS011;34054;52.100;5.116;2022-09-09T00:03:39;0.96;;;0.70;;
43511;SDS011;34054;52.100;5.116;2022-09-09T00:04:21;3.58;;;1.14;;
43511;SDS011;34054;52.100;5.116;2022-09-09T00:04:59;0.82;;;0.60;;
43511;SDS011;34054;52.100;5.116;2022-09-09T00:05:48;5.34;;;0.82;;
43511;SDS011;34054;52.100;5.116;2022-09-09T00:06:32;1.90;;;1.10;;
43511;SDS011;34054;52.100;5.116;2022-09-09T00:07:18;2.42;;;1.32;;
43511;SDS011;34054;52.100;5.116;2022-09-09T00:08:01;0.96;;;0.82;;
43511;SDS011;34054;52.100;5.116;2022-09-09T00:08:38;0.78;;;0.78;;
43511;SDS011;34054;52.100;5.116;2022-09-09T00:09:21;3.38;;;1.38;;
43511;SDS011;34054;52.100;5.116;2022-09-09T00:10:00;0.95;;;0.60;;
43511;SDS011;34054;52.100;5.116;2022-09-09T00:10:51;1.34;;;0.98;;
43511;SDS011;34054;52.100;5.116;2022-09-09T00:11:36;1.63;;;0.70;;
43511;SDS011;34054;52.100;5.116;2022-09-09T00:12:16;2.78;;;1.14;;
43511;SDS011;34054;52.100;5.116;2022-09-09T00:13:00;9.04;;;2.52;;
43511;SDS011;34054;52.100;5.116;2022-09-09T00:13:41;1.86;;;1.12;;
43511;SDS011;34054;52.100;5.116;2022-09-09T00:14:25;2.08;;;1.54;;
43511;SDS011;34054;52.100;5.116;2022-09-09T00:15:11;0.32;;;0.32;;
43511;SDS011;34054;52.100;5.116;2022-09-09T00:15:54;2.36;;;2.04;;
43511;SDS011;34054;52.100;5.116;2022-09-09T00:16:34;2.04;;;1.18;;
43511;SDS011;34054;52.100;5.116;2022-09-09T00:17:14;6.12;;;0.92;;
43511;SDS011;34054;52.100;5.116;2022-09-09T00:18:03;3.20;;;1.22;;
43511;SDS011;34054;52.100;5.116;2022-09-09T00:18:51;1.14;;;0.74;;
43511;SDS011;34054;52.100;5.116;2022-09-09T00:19:38;1.58;;;1.26;;
43511;SDS011;34054;52.100;5.116;2022-09-09T00:20:23;1.74;;;0.90;;
43511;SDS011;34054;52.100;5.116;2022-09-09T00:21:05;3.18;;;0.60;;
43511;SDS011;34054;52.100;5.116;2022-09-09T00:21:45;3.58;;;2.25;;
43511;SDS011;34054;52.100;5.116;2022-09-09T00:22:29;3.88;;;0.90;;
43511;SDS011;34054;52.100;5.116;2022-09-09T00:23:05;3.12;;;0.88;;
43511;SDS011;34054;52.100;5.116;2022-09-09T00:23:46;1.34;;;0.98;;
43511;SDS011;34054;52.100;5.116;2022-09-09T00:24:26;2.32;;;1.56;;
43511;SDS011;34054;52.100;5.116;2022-09-09T00:25:08;12.18;;;1.28;;
43511;SDS011;34054;52.100;5.116;2022-09-09T00:25:49;2.34;;;1.40;;
43511;SDS011;34054;52.100;5.116;2022-09-09T00:26:34;0.48;;;0.34;;
43511;SDS011;34054;52.100;5.116;2022-09-09T00:27:13;2.66;;;0.94;;
43511;SDS011;34054;52.100;5.116;2022-09-09T00:27:54;4.20;;;1.74;;
43511;SDS011;34054;52.100;5.116;2022-09-09T00:28:28;2.80;;;1.24;;
43511;SDS011;34054;52.100;5.116;2022-09-09T00:29:04;1.60;;;0.95;;
43511;SDS011;34054;52.100;5.116;2022-09-09T00:29:56;0.78;;;0.64;;
43511;SDS011;34054;52.100;5.116;2022-09-09T00:30:44;1.64;;;0.70;;
43511;SDS011;34054;52.100;5.116;2022-09-09T00:31:20;1.38;;;0.96;;
43511;SDS011;34054;52.100;5.116;2022-09-09T00:32:00;0.98;;;0.70;;
43511;SDS011;34054;52.100;5.116;2022-09-09T00:32:43;1.15;;;0.77;;
43511;SDS011;34054;52.100;5.116;2022-09-09T00:33:16;1.34;;;1.24;;
43511;SDS011;34054;52.100;5.116;2022-09-09T00:33:54;2.84;;;1.50;;
43511;SDS011;34054;52.100;5.116;2022-09-09T00:34:33;2.14;;;1.02;;
43511;SDS011;34054;52.100;5.116;2022-09-09T00:35:12;6.78;;;0.80;;
43511;SDS011;34054;52.100;5.116;2022-09-09T00:35:51;4.30;;;1.66;;
43511;SDS011;34054;52.100;5.116;2022-09-09T00:36:27;6.22;;;2.22;;
43511;SDS011;34054;52.100;5.116;2022-09-09T00:37:03;1.78;;;1.02;;
43511;SDS011;34054;52.100;5.116;2022-09-09T00:37:35;1.36;;;1.14;;
43511;SDS011;34054;52.100;5.116;2022-09-09T00:38:10;1.96;;;0.74;;
43511;SDS011;34054;52.100;5.116;2022-09-09T00:38:47;3.32;;;0.94;;
43511;SDS011;34054;52.100;5.116;2022-09-09T00:39:27;1.16;;;0.96;;
43511;SDS011;34054;52.100;5.116;2022-09-09T00:40:13;4.60;;;0.94;;
43511;SDS011;34054;52.100;5.116;2022-09-09T00:40:58;2.58;;;1.70;;
43511;SDS011;34054;52.100;5.116;2022-09-09T00:41:44;1.20;;;0.96;;
43511;SDS011;34054;52.100;5.116;2022-09-09T00:42:40;5.02;;;1.00;;
43511;SDS011;34054;52.100;5.116;2022-09-09T00:43:25;3.68;;;1.62;;
43511;SDS011;34054;52.100;5.116;2022-09-09T00:44:03;5.76;;;1.68;;
43511;SDS011;34054;52.100;5.116;2022-09-09T00:45:45;2.55;;;1.35;;
43511;SDS011;34054;52.100;5.116;2022-09-09T00:48:00;1.42;;;1.24;;
43511;SDS011;34054;52.100;5.116;2022-09-09T00:48:44;2.53;;;1.83;;
43511;SDS011;34054;52.100;5.116;2022-09-09T00:49:33;2.64;;;1.00;;
43511;SDS011;34054;52.100;5.116;2022-09-09T00:50:27;4.74;;;1.80;;
43511;SDS011;34054;52.100;5.116;2022-09-09T00:51:21;2.02;;;1.70;;
43511;SDS011;34054;52.100;5.116;2022-09-09T00:52:10;1.16;;;1.06;;
43511;SDS011;34054;52.100;5.116;2022-09-09T00:52:59;2.34;;;1.42;;
43511;SDS011;34054;52.100;5.116;2022-09-09T00:53:56;1.40;;;1.04;;
43511;SDS011;34054;52.100;5.116;2022-09-09T00:54:54;1.90;;;1.38;;
43511;SDS011;34054;52.100;5.116;2022-09-09T00:55:39;3.02;;;2.12;;
43511;SDS011;34054;52.100;5.116;2022-09-09T00:56:20;1.84;;;1.12;;
43511;SDS011;34054;52.100;5.116;2022-09-09T00:57:03;3.80;;;1.67;;
43511;SDS011;34054;52.100;5.116;2022-09-09T00:57:54;2.62;;;1.48;;
43511;SDS011;34054;52.100;5.116;2022-09-09T00:58:26;4.20;;;1.66;;
43511;SDS011;34054;52.100;5.116;2022-09-09T00:58:59;3.94;;;2.10;;
43511;SDS011;34054;52.100;5.116;2022-09-09T00:59:50;5.63;;;2.17;;
43511;SDS011;34054;52.100;5.116;2022-09-09T01:00:29;5.10;;;2.70;;
43511;SDS011;34054;52.100;5.116;2022-09-09T01:01:08;2.14;;;1.32;;
43511;SDS011;34054;52.100;5.116;2022-09-09T01:01:43;1.26;;;1.16;;
43511;SDS011;34054;52.100;5.116;2022-09-09T01:02:21;2.52;;;1.84;;
43511;SDS011;34054;52.100;5.116;2022-09-09T01:03:02;2.96;;;1.72;;
43511;SDS011;34054;52.100;5.116;2022-09-09T01:03:55;1.74;;;1.24;;
43511;SDS011;34054;52.100;5.116;2022-09-09T01:04:32;2.92;;;2.24;;
43511;SDS011;34054;52.100;5.116;2022-09-09T01:05:10;4.48;;;2.62;;
43511;SDS011;34054;52.100;5.116;2022-09-09T01:05:54;6.24;;;2.26;;
43511;SDS011;34054;52.100;5.116;2022-09-09T01:06:34;9.00;;;1.54;;
43511;SDS011;34054;52.100;5.116;2022-09-09T01:07:11;5.72;;;1.64;;
43511;SDS011;34054;52.100;5.116;2022-09-09T01:07:48;2.70;;;1.78;;
43511;SDS011;34054;52.100;5.116;2022-09-09T01:08:26;1.86;;;1.30;;
43511;SDS011;34054;52.100;5.116;2022-09-09T01:09:16;1.06;;;0.96;;
43511;SDS011;34054;52.100;5.116;2022-09-09T01:09:58;4.24;;;2.00;;
43511;SDS011;34054;52.100;5.116;2022-09-09T01:10:36;2.28;;;1.38;;
43511;SDS011;34054;52.100;5.116;2022-09-09T01:11:21;2.67;;;1.55;;
43511;SDS011;34054;52.100;5.116;2022-09-09T01:11:57;1.50;;;1.23;;
43511;SDS011;34054;52.100;5.116;2022-09-09T01:12:41;4.72;;;1.64;;
43511;SDS011;34054;52.100;5.116;2022-09-09T01:13:15;2.96;;;2.68;;
43511;SDS011;34054;52.100;5.116;2022-09-09T01:13:55;2.30;;;1.88;;
43511;SDS011;34054;52.100;5.116;2022-09-09T01:14:42;3.58;;;1.08;;
43511;SDS011;34054;52.100;5.116;2022-09-09T01:15:20;5.12;;;2.54;;
43511;SDS011;34054;52.100;5.116;2022-09-09T01:15:57;3.04;;;2.00;;
43511;SDS011;34054;52.100;5.116;2022-09-09T01:16:33;3.48;;;1.54;;
43511;SDS011;34054;52.100;5.116;2022-09-09T01:17:07;3.72;;;2.00;;
43511;SDS011;34054;52.100;5.116;2022-09-09T01:17:50;1.88;;;1.14;;
43511;SDS011;34054;52.100;5.116;2022-09-09T01:18:33;1.80;;;1.18;;
43511;SDS011;34054;52.100;5.116;2022-09-09T01:19:10;4.78;;;1.50;;
43511;SDS011;34054;52.100;5.116;2022-09-09T01:19:56;6.22;;;1.62;;
43511;SDS011;34054;52.100;5.116;2022-09-09T01:20:38;1.98;;;1.62;;
43511;SDS011;34054;52.100;5.116;2022-09-09T01:21:22;2.28;;;1.14;;
43511;SDS011;34054;52.100;5.116;2022-09-09T01:22:10;2.62;;;1.82;;
43511;SDS011;34054;52.100;5.116;2022-09-09T01:23:00;1.54;;;0.88;;
43511;SDS011;34054;52.100;5.116;2022-09-09T01:24:04;2.84;;;0.94;;
43511;SDS011;34054;52.100;5.116;2022-09-09T01:25:01;2.22;;;1.68;;
43511;SDS011;34054;52.100;5.116;2022-09-09T01:26:11;3.20;;;1.85;;
43511;SDS011;34054;52.100;5.116;2022-09-09T01:26:50;1.70;;;1.42;;
43511;SDS011;34054;52.100;5.116;2022-09-09T01:27:25;2.10;;;1.52;;
43511;SDS011;34054;52.100;5.116;2022-09-09T01:27:58;9.76;;;2.28;;
43511;SDS011;34054;52.100;5.116;2022-09-09T01:28:39;1.15;;;1.05;;
43511;SDS011;34054;52.100;5.116;2022-09-09T01:29:16;3.72;;;1.96;;
43511;SDS011;34054;52.100;5.116;2022-09-09T01:29:50;4.40;;;1.28;;
43511;SDS011;34054;52.100;5.116;2022-09-09T01:30:22;2.60;;;1.60;;
43511;SDS011;34054;52.100;5.116;2022-09-09T01:30:55;5.78;;;2.08;;
43511;SDS011;34054;52.100;5.116;2022-09-09T01:31:30;1.46;;;1.02;;
43511;SDS011;34054;52.100;5.116;2022-09-09T01:33:12;2.18;;;1.74;;
43511;SDS011;34054;52.100;5.116;2022-09-09T01:33:49;3.54;;;2.34;;
43511;SDS011;34054;52.100;5.116;2022-09-09T01:34:21;2.42;;;1.16;;
43511;SDS011;34054;52.100;5.116;2022-09-09T01:34:55;2.24;;;1.46;;
43511;SDS011;34054;52.100;5.116;2022-09-09T01:35:31;4.56;;;2.18;;
43511;SDS011;34054;52.100;5.116;2022-09-09T01:36:15;1.92;;;1.34;;
43511;SDS011;34054;52.100;5.116;2022-09-09T01:36:59;2.92;;;1.56;;
43511;SDS011;34054;52.100;5.116;2022-09-09T01:37:36;1.74;;;1.04;;
43511;SDS011;34054;52.100;5.116;2022-09-09T01:38:08;1.56;;;1.46;;
43511;SDS011;34054;52.100;5.116;2022-09-09T01:38:40;3.52;;;2.52;;
43511;SDS011;34054;52.100;5.116;2022-09-09T01:39:13;8.32;;;3.14;;
43511;SDS011;34054;52.100;5.116;2022-09-09T01:39:45;2.22;;;1.54;;
43511;SDS011;34054;52.100;5.116;2022-09-09T01:40:16;6.70;;;2.50;;
43511;SDS011;34054;52.100;5.116;2022-09-09T01:40:48;2.16;;;1.78;;
43511;SDS011;34054;52.100;5.116;2022-09-09T01:41:24;4.12;;;1.70;;
43511;SDS011;34054;52.100;5.116;2022-09-09T01:41:55;2.40;;;1.14;;
43511;SDS011;34054;52.100;5.116;2022-09-09T01:42:28;4.06;;;1.34;;
43511;SDS011;34054;52.100;5.116;2022-09-09T01:43:00;1.96;;;1.46;;
43511;SDS011;34054;52.100;5.116;2022-09-09T01:43:33;3.00;;;2.16;;
43511;SDS011;34054;52.100;5.116;2022-09-09T01:44:05;3.42;;;2.56;;
43511;SDS011;34054;52.100;5.116;2022-09-09T01:44:40;1.40;;;1.14;;
43511;SDS011;34054;52.100;5.116;2022-09-09T01:45:11;3.26;;;2.56;;
43511;SDS011;34054;52.100;5.116;2022-09-09T01:45:43;6.12;;;2.04;;
43511;SDS011;34054;52.100;5.116;2022-09-09T01:46:20;2.44;;;1.86;;
43511;SDS011;34054;52.100;5.116;2022-09-09T01:46:53;2.72;;;1.28;;
43511;SDS011;34054;52.100;5.116;2022-09-09T01:47:25;4.02;;;2.10;;
43511;SDS011;34054;52.100;5.116;2022-09-09T01:47:57;2.88;;;1.92;;
43511;SDS011;34054;52.100;5.116;2022-09-09T01:48:31;1.82;;;1.00;;
43511;SDS011;34054;52.100;5.116;2022-09-09T01:49:03;2.02;;;1.32;;
43511;SDS011;34054;52.100;5.116;2022-09-09T01:49:39;7.94;;;1.76;;
43511;SDS011;34054;52.100;5.116;2022-09-09T01:50:10;1.98;;;1.66;;
43511;SDS011;34054;52.100;5.116;2022-09-09T01:50:47;5.86;;;2.84;;
43511;SDS011;34054;52.100;5.116;2022-09-09T01:51:19;2.86;;;2.10;;
43511;SDS011;34054;52.100;5.116;2022-09-09T01:51:53;4.78;;;2.38;;
43511;SDS011;34054;52.100;5.116;2022-09-09T01:52:27;5.46;;;2.52;;
43511;SDS011;34054;52.100;5.116;2022-09-09T01:53:00;3.44;;;2.24;;
43511;SDS011;34054;52.100;5.116;2022-09-09T01:53:34;2.62;;;2.40;;
43511;SDS011;34054;52.100;5.116;2022-09-09T01:54:05;4.70;;;2.34;;
43511;SDS011;34054;52.100;5.116;2022-09-09T01:54:39;3.08;;;1.36;;
43511;SDS011;34054;52.100;5.116;2022-09-09T01:55:10;4.18;;;2.30;;
43511;SDS011;34054;52.100;5.116;2022-09-09T01:55:44;2.40;;;1.64;;
43511;SDS011;34054;52.100;5.116;2022-09-09T01:56:38;4.96;;;2.38;;
43511;SDS011;34054;52.100;5.116;2022-09-09T01:57:18;2.92;;;2.28;;
43511;SDS011;34054;52.100;5.116;2022-09-09T01:58:00;3.62;;;2.64;;
43511;SDS011;34054;52.100;5.116;2022-09-09T01:58:57;9.40;;;2.50;;
43511;SDS011;34054;52.100;5.116;2022-09-09T01:59:48;3.30;;;2.28;;
43511;SDS011;34054;52.100;5.116;2022-09-09T02:00:32;2.96;;;1.82;;
43511;SDS011;34054;52.100;5.116;2022-09-09T02:01:15;2.14;;;1.50;;
43511;SDS011;34054;52.100;5.116;2022-09-09T02:02:03;3.90;;;2.18;;
43511;SDS011;34054;52.100;5.116;2022-09-09T02:02:44;3.14;;;2.32;;
43511;SDS011;34054;52.100;5.116;2022-09-09T02:03:29;6.16;;;3.06;;
43511;SDS011;34054;52.100;5.116;2022-09-09T02:04:07;6.16;;;2.64;;
43511;SDS011;34054;52.100;5.116;2022-09-09T02:04:54;6.26;;;3.02;;
43511;SDS011;34054;52.100;5.116;2022-09-09T02:05:39;3.50;;;2.68;;
43511;SDS011;34054;52.100;5.116;2022-09-09T02:06:19;2.94;;;2.02;;
43511;SDS011;34054;52.100;5.116;2022-09-09T02:07:01;6.58;;;2.76;;
43511;SDS011;34054;52.100;5.116;2022-09-09T02:07:37;2.74;;;2.40;;
43511;SDS011;34054;52.100;5.116;2022-09-09T02:08:11;5.98;;;2.56;;
43511;SDS011;34054;52.100;5.116;2022-09-09T02:08:52;5.32;;;2.70;;
43511;SDS011;34054;52.100;5.116;2022-09-09T02:09:30;3.98;;;2.76;;
43511;SDS011;34054;52.100;5.116;2022-09-09T02:10:02;3.42;;;2.10;;
43511;SDS011;34054;52.100;5.116;2022-09-09T02:10:43;3.70;;;3.13;;
43511;SDS011;34054;52.100;5.116;2022-09-09T02:11:24;5.46;;;3.14;;
43511;SDS011;34054;52.100;5.116;2022-09-09T02:12:01;3.84;;;2.26;;
43511;SDS011;34054;52.100;5.116;2022-09-09T02:12:43;8.40;;;2.92;;
43511;SDS011;34054;52.100;5.116;2022-09-09T02:13:21;3.82;;;3.42;;
43511;SDS011;34054;52.100;5.116;2022-09-09T02:13:54;4.26;;;3.50;;
43511;SDS011;34054;52.100;5.116;2022-09-09T02:14:34;7.50;;;3.80;;
43511;SDS011;34054;52.100;5.116;2022-09-09T02:15:15;4.47;;;2.83;;
43511;SDS011;34054;52.100;5.116;2022-09-09T02:16:00;4.90;;;2.96;;
43511;SDS011;34054;52.100;5.116;2022-09-09T02:16:40;2.38;;;1.82;;
43511;SDS011;34054;52.100;5.116;2022-09-09T02:17:19;9.43;;;3.88;;
43511;SDS011;34054;52.100;5.116;2022-09-09T02:18:00;3.18;;;2.88;;
43511;SDS011;34054;52.100;5.116;2022-09-09T02:18:40;4.24;;;2.70;;
43511;SDS011;34054;52.100;5.116;2022-09-09T02:19:19;5.03;;;2.50;;
43511;SDS011;34054;52.100;5.116;2022-09-09T02:19:59;3.03;;;2.72;;
43511;SDS011;34054;52.100;5.116;2022-09-09T02:20:40;3.88;;;2.18;;
43511;SDS011;34054;52.100;5.116;2022-09-09T02:21:17;4.72;;;3.04;;
43511;SDS011;34054;52.100;5.116;2022-09-09T02:21:49;2.88;;;2.12;;
43511;SDS011;34054;52.100;5.116;2022-09-09T02:22:24;4.60;;;2.08;;
43511;SDS011;34054;52.100;5.116;2022-09-09T02:23:00;11.18;;;2.44;;
43511;SDS011;34054;52.100;5.116;2022-09-09T02:23:34;4.70;;;2.76;;
43511;SDS011;34054;52.100;5.116;2022-09-09T02:24:07;6.02;;;3.02;;
43511;SDS011;34054;52.100;5.116;2022-09-09T02:24:42;4.06;;;3.30;;
43511;SDS011;34054;52.100;5.116;2022-09-09T02:25:15;4.96;;;3.70;;
43511;SDS011;34054;52.100;5.116;2022-09-09T02:25:52;4.28;;;2.10;;
43511;SDS011;34054;52.100;5.116;2022-09-09T02:26:28;2.40;;;1.96;;
43511;SDS011;34054;52.100;5.116;2022-09-09T02:27:03;7.12;;;2.50;;
43511;SDS011;34054;52.100;5.116;2022-09-09T02:27:39;7.66;;;3.24;;
43511;SDS011;34054;52.100;5.116;2022-09-09T02:28:14;3.22;;;1.74;;
43511;SDS011;34054;52.100;5.116;2022-09-09T02:28:51;7.54;;;2.92;;
43511;SDS011;34054;52.100;5.116;2022-09-09T02:29:29;2.22;;;1.58;;
43511;SDS011;34054;52.100;5.116;2022-09-09T02:30:05;3.26;;;2.46;;
43511;SDS011;34054;52.100;5.116;2022-09-09T02:30:40;8.12;;;4.02;;
43511;SDS011;34054;52.100;5.116;2022-09-09T02:31:18;2.62;;;2.02;;
43511;SDS011;34054;52.100;5.116;2022-09-09T02:31:53;5.24;;;3.48;;
43511;SDS011;34054;52.100;5.116;2022-09-09T02:32:33;1.63;;;1.48;;
43511;SDS011;34054;52.100;5.116;2022-09-09T02:33:10;3.96;;;2.60;;
43511;SDS011;34054;52.100;5.116;2022-09-09T02:33:45;4.14;;;2.64;;
43511;SDS011;34054;52.100;5.116;2022-09-09T02:34:26;3.26;;;2.60;;
43511;SDS011;34054;52.100;5.116;2022-09-09T02:35:02;5.06;;;3.20;;
43511;SDS011;34054;52.100;5.116;2022-09-09T02:35:39;2.74;;;1.78;;
43511;SDS011;34054;52.100;5.116;2022-09-09T02:36:15;4.12;;;3.08;;
43511;SDS011;34054;52.100;5.116;2022-09-09T02:36:50;3.58;;;2.58;;
43511;SDS011;34054;52.100;5.116;2022-09-09T02:37:27;3.34;;;2.98;;
43511;SDS011;34054;52.100;5.116;2022-09-09T02:38:45;5.52;;;3.64;;
43511;SDS011;34054;52.100;5.116;2022-09-09T02:39:54;5.26;;;3.16;;
43511;SDS011;34054;52.100;5.116;2022-09-09T02:40:26;2.76;;;2.18;;
43511;SDS011;34054;52.100;5.116;2022-09-09T02:40:58;3.32;;;2.64;;
43511;SDS011;34054;52.100;5.116;2022-09-09T02:41:33;3.52;;;2.52;;
43511;SDS011;34054;52.100;5.116;2022-09-09T02:42:09;2.80;;;2.20;;
43511;SDS011;34054;52.100;5.116;2022-09-09T02:42:41;3.08;;;2.56;;
43511;SDS011;34054;52.100;5.116;2022-09-09T02:43:16;5.30;;;3.08;;
43511;SDS011;34054;52.100;5.116;2022-09-09T02:43:47;4.44;;;2.52;;
43511;SDS011;34054;52.100;5.116;2022-09-09T02:44:19;4.12;;;2.32;;
43511;SDS011;34054;52.100;5.116;2022-09-09T02:44:51;6.70;;;3.62;;
43511;SDS011;34054;52.100;5.116;2022-09-09T02:45:24;8.34;;;4.32;;
43511;SDS011;34054;52.100;5.116;2022-09-09T02:46:08;2.78;;;2.38;;
43511;SDS011;34054;52.100;5.116;2022-09-09T02:47:12;4.10;;;2.76;;
43511;SDS011;34054;52.100;5.116;2022-09-09T02:47:59;6.10;;;2.92;;
43511;SDS011;34054;52.100;5.116;2022-09-09T02:48:44;5.20;;;3.26;;
43511;SDS011;34054;52.100;5.116;2022-09-09T02:49:28;4.60;;;2.38;;
43511;SDS011;34054;52.100;5.116;2022-09-09T02:50:15;3.98;;;2.90;;
43511;SDS011;34054;52.100;5.116;2022-09-09T02:51:04;4.38;;;2.56;;
43511;SDS011;34054;52.100;5.116;2022-09-09T02:51:48;5.26;;;3.68;;
43511;SDS011;34054;52.100;5.116;2022-09-09T02:52:32;4.28;;;3.78;;
43511;SDS011;34054;52.100;5.116;2022-09-09T02:53:23;4.28;;;3.28;;
43511;SDS011;34054;52.100;5.116;2022-09-09T02:54:04;4.22;;;2.70;;
43511;SDS011;34054;52.100;5.116;2022-09-09T02:54:47;6.96;;;2.78;;
43511;SDS011;34054;52.100;5.116;2022-09-09T02:55:33;2.82;;;2.02;;
43511;SDS011;34054;52.100;5.116;2022-09-09T02:56:47;5.98;;;2.78;;
43511;SDS011;34054;52.100;5.116;2022-09-09T02:57:26;7.32;;;2.64;;
43511;SDS011;34054;52.100;5.116;2022-09-09T02:58:02;3.70;;;2.44;;
43511;SDS011;34054;52.100;5.116;2022-09-09T02:58:38;2.88;;;1.62;;
43511;SDS011;34054;52.100;5.116;2022-09-09T02:59:11;3.56;;;2.98;;
43511;SDS011;34054;52.100;5.116;2022-09-09T02:59:44;6.18;;;2.36;;
43511;SDS011;34054;52.100;5.116;2022-09-09T03:00:22;3.20;;;2.00;;
43511;SDS011;34054;52.100;5.116;2022-09-09T03:00:56;3.32;;;2.48;;
43511;SDS011;34054;52.100;5.116;2022-09-09T03:01:31;3.92;;;2.48;;
43511;SDS011;34054;52.100;5.116;2022-09-09T03:02:03;5.62;;;2.98;;
43511;SDS011;34054;52.100;5.116;2022-09-09T03:02:36;10.22;;;2.04;;
43511;SDS011;34054;52.100;5.116;2022-09-09T03:03:08;4.94;;;3.02;;
43511;SDS011;34054;52.100;5.116;2022-09-09T03:03:39;3.16;;;1.80;;
43511;SDS011;34054;52.100;5.116;2022-09-09T03:04:13;8.50;;;2.86;;
43511;SDS011;34054;52.100;5.116;2022-09-09T03:04:44;5.86;;;3.10;;
43511;SDS011;34054;52.100;5.116;2022-09-09T03:05:21;3.28;;;2.08;;
43511;SDS011;34054;52.100;5.116;2022-09-09T03:05:54;5.22;;;2.24;;
43511;SDS011;34054;52.100;5.116;2022-09-09T03:06:25;3.00;;;1.92;;
43511;SDS011;34054;52.100;5.116;2022-09-09T03:06:59;2.26;;;1.64;;
43511;SDS011;34054;52.100;5.116;2022-09-09T03:07:31;7.92;;;4.28;;
43511;SDS011;34054;52.100;5.116;2022-09-09T03:08:03;4.66;;;3.70;;
43511;SDS011;34054;52.100;5.116;2022-09-09T03:08:36;4.06;;;2.72;;
43511;SDS011;34054;52.100;5.116;2022-09-09T03:09:07;7.42;;;3.20;;
43511;SDS011;34054;52.100;5.116;2022-09-09T03:09:41;3.98;;;3.38;;
43511;SDS011;34054;52.100;5.116;2022-09-09T03:10:12;2.88;;;2.54;;
43511;SDS011;34054;52.100;5.116;2022-09-09T03:10:44;4.14;;;2.72;;
43511;SDS011;34054;52.100;5.116;2022-09-09T03:11:17;3.66;;;1.84;;
43511;SDS011;34054;52.100;5.116;2022-09-09T03:11:48;2.78;;;2.42;;
43511;SDS011;34054;52.100;5.116;2022-09-09T03:12:20;4.78;;;3.14;;
43511;SDS011;34054;52.100;5.116;2022-09-09T03:12:53;2.54;;;1.66;;
43511;SDS011;34054;52.100;5.116;2022-09-09T03:13:26;4.70;;;2.94;;
43511;SDS011;34054;52.100;5.116;2022-09-09T03:13:57;3.44;;;2.74;;
43511;SDS011;34054;52.100;5.116;2022-09-09T03:14:29;5.30;;;3.84;;
43511;SDS011;34054;52.100;5.116;2022-09-09T03:15:01;2.28;;;1.80;;
43511;SDS011;34054;52.100;5.116;2022-09-09T03:15:33;4.62;;;3.30;;
43511;SDS011;34054;52.100;5.116;2022-09-09T03:16:05;3.68;;;2.66;;
43511;SDS011;34054;52.100;5.116;2022-09-09T03:16:38;3.84;;;3.00;;
43511;SDS011;34054;52.100;5.116;2022-09-09T03:17:09;3.24;;;2.42;;
43511;SDS011;34054;52.100;5.116;2022-09-09T03:17:41;4.08;;;3.32;;
43511;SDS011;34054;52.100;5.116;2022-09-09T03:18:13;1.98;;;1.76;;
43511;SDS011;34054;52.100;5.116;2022-09-09T03:18:45;9.02;;;3.58;;
43511;SDS011;34054;52.100;5.116;2022-09-09T03:19:16;6.34;;;3.16;;
43511;SDS011;34054;52.100;5.116;2022-09-09T03:19:49;6.30;;;2.96;;
43511;SDS011;34054;52.100;5.116;2022-09-09T03:20:23;5.46;;;3.70;;
43511;SDS011;34054;52.100;5.116;2022-09-09T03:20:56;5.08;;;2.46;;
43511;SDS011;34054;52.100;5.116;2022-09-09T03:21:30;4.34;;;3.64;;
43511;SDS011;34054;52.100;5.116;2022-09-09T03:22:02;4.16;;;3.26;;
43511;SDS011;34054;52.100;5.116;2022-09-09T03:22:35;4.46;;;3.62;;
43511;SDS011;34054;52.100;5.116;2022-09-09T03:23:07;3.82;;;2.68;;
43511;SDS011;34054;52.100;5.116;2022-09-09T03:23:39;7.76;;;3.44;;
43511;SDS011;34054;52.100;5.116;2022-09-09T03:24:10;6.46;;;3.96;;
43511;SDS011;34054;52.100;5.116;2022-09-09T03:24:42;6.14;;;2.48;;
43511;SDS011;34054;52.100;5.116;2022-09-09T03:25:14;5.88;;;2.30;;
43511;SDS011;34054;52.100;5.116;2022-09-09T03:25:47;2.96;;;2.42;;
43511;SDS011;34054;52.100;5.116;2022-09-09T03:26:19;2.76;;;2.20;;
43511;SDS011;34054;52.100;5.116;2022-09-09T03:26:51;5.22;;;3.44;;
43511;SDS011;34054;52.100;5.116;2022-09-09T03:27:23;4.14;;;2.78;;
43511;SDS011;34054;52.100;5.116;2022-09-09T03:27:57;12.50;;;4.20;;
43511;SDS011;34054;52.100;5.116;2022-09-09T03:28:29;4.14;;;3.16;;
43511;SDS011;34054;52.100;5.116;2022-09-09T03:29:02;5.76;;;3.32;;
43511;SDS011;34054;52.100;5.116;2022-09-09T03:29:33;5.58;;;2.52;;
43511;SDS011;34054;52.100;5.116;2022-09-09T03:30:06;3.46;;;2.94;;
43511;SDS011;34054;52.100;5.116;2022-09-09T03:30:39;4.46;;;3.28;;
43511;SDS011;34054;52.100;5.116;2022-09-09T03:31:10;5.13;;;3.13;;
43511;SDS011;34054;52.100;5.116;2022-09-09T03:31:43;4.34;;;3.56;;
43511;SDS011;34054;52.100;5.116;2022-09-09T03:32:14;3.70;;;2.38;;
43511;SDS011;34054;52.100;5.116;2022-09-09T03:32:48;10.30;;;2.82;;
43511;SDS011;34054;52.100;5.116;2022-09-09T03:33:21;7.35;;;2.92;;
43511;SDS011;34054;52.100;5.116;2022-09-09T03:33:52;3.28;;;2.62;;
43511;SDS011;34054;52.100;5.116;2022-09-09T03:34:24;7.56;;;5.06;;
43511;SDS011;34054;52.100;5.116;2022-09-09T03:34:56;4.56;;;3.32;;
43511;SDS011;34054;52.100;5.116;2022-09-09T03:35:28;2.60;;;1.77;;
43511;SDS011;34054;52.100;5.116;2022-09-09T03:36:00;3.64;;;2.40;;
43511;SDS011;34054;52.100;5.116;2022-09-09T03:36:32;4.18;;;3.22;;
43511;SDS011;34054;52.100;5.116;2022-09-09T03:37:05;5.54;;;2.80;;
43511;SDS011;34054;52.100;5.116;2022-09-09T03:37:37;4.00;;;2.60;;
43511;SDS011;34054;52.100;5.116;2022-09-09T03:38:09;3.36;;;2.20;;
43511;SDS011;34054;52.100;5.116;2022-09-09T03:38:42;2.84;;;1.96;;
43511;SDS011;34054;52.100;5.116;2022-09-09T03:39:13;5.00;;;3.00;;
43511;SDS011;34054;52.100;5.116;2022-09-09T03:39:45;6.42;;;2.44;;
43511;SDS011;34054;52.100;5.116;2022-09-09T03:40:16;5.66;;;2.86;;
43511;SDS011;34054;52.100;5.116;2022-09-09T03:40:50;8.10;;;3.34;;
43511;SDS011;34054;52.100;5.116;2022-09-09T03:41:25;4.56;;;2.44;;
43511;SDS011;34054;52.100;5.116;2022-09-09T03:41:57;2.54;;;2.00;;
43511;SDS011;34054;52.100;5.116;2022-09-09T03:42:30;5.82;;;3.40;;
43511;SDS011;34054;52.100;5.116;2022-09-09T03:43:03;5.68;;;2.58;;
43511;SDS011;34054;52.100;5.116;2022-09-09T03:43:35;10.60;;;3.08;;
43511;SDS011;34054;52.100;5.116;2022-09-09T03:44:08;4.45;;;3.80;;
43511;SDS011;34054;52.100;5.116;2022-09-09T03:44:39;5.97;;;3.97;;
43511;SDS011;34054;52.100;5.116;2022-09-09T03:45:12;3.97;;;2.78;;
43511;SDS011;34054;52.100;5.116;2022-09-09T03:45:45;4.57;;;2.72;;
43511;SDS011;34054;52.100;5.116;2022-09-09T03:46:18;6.76;;;1.90;;
43511;SDS011;34054;52.100;5.116;2022-09-09T03:46:49;4.76;;;3.04;;
43511;SDS011;34054;52.100;5.116;2022-09-09T03:47:21;5.56;;;3.42;;
43511;SDS011;34054;52.100;5.116;2022-09-09T03:47:54;8.90;;;3.04;;
43511;SDS011;34054;52.100;5.116;2022-09-09T03:48:25;5.28;;;1.92;;
43511;SDS011;34054;52.100;5.116;2022-09-09T03:48:58;4.18;;;3.03;;
43511;SDS011;34054;52.100;5.116;2022-09-09T03:49:32;5.16;;;2.70;;
43511;SDS011;34054;52.100;5.116;2022-09-09T03:50:04;3.06;;;2.48;;
43511;SDS011;34054;52.100;5.116;2022-09-09T03:50:39;4.75;;;2.40;;
43511;SDS011;34054;52.100;5.116;2022-09-09T03:51:16;10.62;;;3.84;;
43511;SDS011;34054;52.100;5.116;2022-09-09T03:51:47;8.60;;;3.90;;
43511;SDS011;34054;52.100;5.116;2022-09-09T03:52:19;2.76;;;1.66;;
43511;SDS011;34054;52.100;5.116;2022-09-09T03:52:52;2.54;;;1.94;;
43511;SDS011;34054;52.100;5.116;2022-09-09T03:53:24;5.40;;;2.50;;